createdAt,value
2023-05-24T00:00:23.709Z,15.09
2023-05-24T00:02:51.042Z,15.07
2023-05-24T00:05:19.017Z,15.07
2023-05-24T00:07:46.150Z,15.08
2023-05-24T00:10:13.406Z,15.09
2023-05-24T00:12:40.569Z,15.10
2023-05-24T00:15:08.088Z,15.04
2023-05-24T00:17:41.416Z,15.03
2023-05-24T00:20:12.174Z,14.98
2023-05-24T00:22:39.375Z,14.91
2023-05-24T00:25:06.898Z,14.87
2023-05-24T00:27:34.035Z,14.89
2023-05-24T00:30:01.092Z,14.90
2023-05-24T00:32:42.498Z,14.88
2023-05-24T00:35:09.748Z,14.87
2023-05-24T00:37:37.568Z,14.89
2023-05-24T00:40:05.114Z,14.90
2023-05-24T00:42:32.295Z,14.89
2023-05-24T00:44:59.790Z,14.90
2023-05-24T00:47:26.880Z,14.91
2023-05-24T00:49:53.850Z,14.92
2023-05-24T00:52:21.136Z,14.91
2023-05-24T00:54:49.252Z,14.90
2023-05-24T00:57:18.938Z,14.89
2023-05-24T00:59:46.483Z,14.88
2023-05-24T01:02:13.448Z,14.85
2023-05-24T01:04:40.910Z,14.83
2023-05-24T01:07:52.609Z,14.80
2023-05-24T01:10:53.578Z,14.79
2023-05-24T01:13:34.453Z,14.80
2023-05-24T01:16:18.117Z,14.79
2023-05-24T01:18:47.894Z,14.77
2023-05-24T01:21:41.800Z,14.76
2023-05-24T01:24:46.964Z,14.72
2023-05-24T01:27:14.284Z,14.69
2023-05-24T01:29:41.357Z,14.64
2023-05-24T01:32:08.392Z,14.60
2023-05-24T01:34:35.413Z,14.55
2023-05-24T01:37:02.536Z,14.56
2023-05-24T01:39:29.754Z,14.57
2023-05-24T01:42:21.264Z,14.53
2023-05-24T01:44:58.092Z,14.54
2023-05-24T01:47:28.212Z,14.54
2023-05-24T01:49:59.764Z,14.53
2023-05-24T01:52:31.866Z,14.50
2023-05-24T01:54:58.992Z,14.50
2023-05-24T01:57:26.131Z,14.49
2023-05-24T01:59:53.204Z,14.49
2023-05-24T02:02:20.448Z,14.47
2023-05-24T02:04:47.635Z,14.48
2023-05-24T02:07:14.655Z,14.47
2023-05-24T02:09:41.763Z,14.49
2023-05-24T02:12:09.463Z,14.49
2023-05-24T02:14:38.054Z,14.49
2023-05-24T02:17:06.226Z,14.47
2023-05-24T02:19:36.975Z,14.48
2023-05-24T02:22:07.385Z,14.47
2023-05-24T02:24:35.012Z,14.45
2023-05-24T02:27:02.728Z,14.42
2023-05-24T02:29:29.919Z,14.39
2023-05-24T02:31:57.068Z,14.39
2023-05-24T02:34:24.208Z,14.37
2023-05-24T02:36:51.763Z,14.34
2023-05-24T02:39:18.860Z,14.33
2023-05-24T02:41:45.917Z,14.34
2023-05-24T02:44:13.149Z,14.34
2023-05-24T02:46:40.645Z,14.32
2023-05-24T02:49:08.029Z,14.25
2023-05-24T02:51:35.083Z,14.22
2023-05-24T02:54:02.176Z,14.23
2023-05-24T02:56:29.692Z,14.20
2023-05-24T02:58:57.161Z,14.17
2023-05-24T03:01:24.356Z,14.20
2023-05-24T03:03:53.542Z,14.22
2023-05-24T03:06:21.040Z,14.25
2023-05-24T03:08:49.373Z,14.26
2023-05-24T03:11:16.823Z,14.30
2023-05-24T03:13:44.461Z,14.32
2023-05-24T03:16:11.850Z,14.34
2023-05-24T03:18:39.073Z,14.36
2023-05-24T03:21:07.554Z,14.40
2023-05-24T03:23:34.659Z,14.43
2023-05-24T03:26:01.805Z,14.49
2023-05-24T03:28:30.196Z,14.54
2023-05-24T03:30:58.080Z,14.58
2023-05-24T03:33:25.518Z,14.63
2023-05-24T03:35:52.703Z,14.65
2023-05-24T03:38:19.779Z,14.66
2023-05-24T03:40:47.999Z,14.68
2023-05-24T03:43:18.574Z,14.72
2023-05-24T03:45:53.747Z,14.78
2023-05-24T03:48:21.171Z,14.82
2023-05-24T03:50:49.047Z,14.85
2023-05-24T03:53:17.482Z,14.89
2023-05-24T03:55:44.857Z,14.93
2023-05-24T03:58:12.846Z,14.97
2023-05-24T04:00:39.930Z,15.00
2023-05-24T04:03:09.197Z,15.01
2023-05-24T04:05:36.330Z,15.06
2023-05-24T04:08:04.396Z,15.10
2023-05-24T04:10:31.615Z,15.15
2023-05-24T04:12:58.850Z,15.18
2023-05-24T04:15:26.949Z,15.22
2023-05-24T04:17:55.386Z,15.26
2023-05-24T04:20:27.729Z,15.32
2023-05-24T04:22:56.187Z,15.36
2023-05-24T04:25:23.498Z,15.39
2023-05-24T04:27:50.923Z,15.40
2023-05-24T04:30:18.272Z,15.45
2023-05-24T04:32:45.326Z,15.50
2023-05-24T04:35:13.013Z,15.53
2023-05-24T04:37:41.040Z,15.57
2023-05-24T04:40:08.750Z,15.62
2023-05-24T04:42:35.931Z,15.65
2023-05-24T04:45:03.012Z,15.66
2023-05-24T04:47:33.863Z,15.69
2023-05-24T04:50:01.101Z,15.72
2023-05-24T04:52:28.242Z,15.74
2023-05-24T04:54:55.694Z,15.79
2023-05-24T04:57:22.963Z,15.83
2023-05-24T04:59:50.059Z,15.88
2023-05-24T05:02:17.601Z,15.92
2023-05-24T05:04:44.852Z,15.98
2023-05-24T05:07:11.885Z,16.02
2023-05-24T05:09:39.018Z,16.06
2023-05-24T05:12:07.249Z,16.08
2023-05-24T05:14:34.422Z,16.11
2023-05-24T05:17:01.624Z,16.14
2023-05-24T05:19:28.885Z,16.17
2023-05-24T05:21:56.115Z,16.21
2023-05-24T05:24:23.261Z,16.25
2023-05-24T05:26:50.619Z,16.31
2023-05-24T05:29:17.687Z,16.36
2023-05-24T05:31:44.948Z,16.40
2023-05-24T05:34:12.104Z,16.46
2023-05-24T05:36:40.943Z,16.50
2023-05-24T05:39:11.550Z,16.54
2023-05-24T05:41:46.294Z,16.62
2023-05-24T05:44:13.908Z,16.65
2023-05-24T05:46:43.965Z,16.70
2023-05-24T05:49:11.486Z,16.74
2023-05-24T05:51:39.980Z,16.78
2023-05-24T05:54:08.961Z,16.83
2023-05-24T05:56:41.140Z,16.88
2023-05-24T05:59:08.231Z,16.91
2023-05-24T06:01:35.576Z,16.98
2023-05-24T06:04:02.792Z,17.01
2023-05-24T06:06:30.069Z,17.07
2023-05-24T06:08:57.272Z,17.13
2023-05-24T06:11:24.299Z,17.22
2023-05-24T06:13:51.601Z,17.30
2023-05-24T06:16:18.785Z,17.37
2023-05-24T06:19:01.251Z,17.46
2023-05-24T06:21:32.343Z,17.57
2023-05-24T06:23:59.861Z,17.69
2023-05-24T06:26:27.286Z,17.80
2023-05-24T06:28:54.752Z,18.03
2023-05-24T06:31:22.171Z,18.48
2023-05-24T06:34:02.823Z,18.97
2023-05-24T06:36:31.100Z,19.44
2023-05-24T06:38:58.318Z,19.84
2023-05-24T06:41:25.271Z,20.22
2023-05-24T06:43:52.683Z,20.58
2023-05-24T06:46:19.822Z,20.91
2023-05-24T06:48:47.618Z,21.21
2023-05-24T06:51:14.824Z,21.42
2023-05-24T06:53:41.973Z,21.50
2023-05-24T06:56:09.927Z,21.63
2023-05-24T06:58:36.978Z,21.75
2023-05-24T07:01:05.220Z,21.86
2023-05-24T07:03:32.570Z,22.02
2023-05-24T07:05:59.768Z,22.36
2023-05-24T07:08:27.211Z,22.66
2023-05-24T07:10:54.717Z,22.73
2023-05-24T07:13:22.053Z,22.74
2023-05-24T07:15:49.390Z,22.72
2023-05-24T07:18:16.675Z,22.68
2023-05-24T07:20:44.166Z,22.71
2023-05-24T07:23:12.140Z,22.81
2023-05-24T07:25:39.306Z,22.95
2023-05-24T07:28:06.345Z,23.11
2023-05-24T07:30:34.138Z,23.35
2023-05-24T07:33:02.042Z,23.58
2023-05-24T07:35:29.560Z,23.79
2023-05-24T07:37:57.016Z,23.96
2023-05-24T07:40:24.229Z,24.18
2023-05-24T07:42:51.643Z,24.34
2023-05-24T07:45:18.691Z,24.38
2023-05-24T07:47:46.077Z,24.36
2023-05-24T07:50:13.257Z,24.47
2023-05-24T07:52:40.389Z,24.55
2023-05-24T07:55:07.840Z,24.74
2023-05-24T07:57:34.973Z,24.93
2023-05-24T08:00:10.299Z,25.10
2023-05-24T08:02:39.077Z,25.25
2023-05-24T08:05:06.689Z,25.30
2023-05-24T08:07:33.759Z,25.35
2023-05-24T08:10:01.198Z,25.31
2023-05-24T08:12:30.551Z,25.31
2023-05-24T08:14:57.668Z,25.17
2023-05-24T08:17:25.135Z,25.06
2023-05-24T08:19:52.230Z,25.08
2023-05-24T08:22:19.865Z,25.16
2023-05-24T08:24:47.505Z,25.27
2023-05-24T08:27:14.855Z,25.24
2023-05-24T08:29:42.101Z,25.14
2023-05-24T08:32:09.851Z,25.15
2023-05-24T08:34:37.790Z,25.00
2023-05-24T08:37:05.182Z,24.86
2023-05-24T08:39:32.323Z,24.74
2023-05-24T08:44:32.566Z,24.53
2023-05-24T08:46:59.553Z,24.62
2023-05-24T08:49:26.694Z,24.86
2023-05-24T08:51:53.817Z,25.07
2023-05-24T08:54:21.299Z,25.11
2023-05-24T08:56:48.480Z,24.95
2023-05-24T08:59:15.535Z,24.91
2023-05-24T09:01:42.594Z,24.72
2023-05-24T09:04:09.741Z,24.57
2023-05-24T09:06:37.202Z,24.49
2023-05-24T09:09:04.340Z,24.44
2023-05-24T09:11:32.190Z,24.30
2023-05-24T09:13:59.237Z,24.22
2023-05-24T09:16:26.374Z,24.10
2023-05-24T09:18:53.568Z,24.04
2023-05-24T09:21:20.819Z,24.06
2023-05-24T09:23:47.925Z,23.99
2023-05-24T09:26:15.090Z,23.97
2023-05-24T09:28:42.302Z,23.93
2023-05-24T09:31:09.372Z,23.82
2023-05-24T09:33:36.451Z,23.80
2023-05-24T09:36:04.920Z,23.85
2023-05-24T09:38:32.112Z,23.90
2023-05-24T09:41:03.324Z,23.93
2023-05-24T09:43:37.377Z,23.97
2023-05-24T09:46:04.956Z,23.93
2023-05-24T09:48:32.073Z,24.04
2023-05-24T09:51:06.643Z,24.30
2023-05-24T09:53:36.154Z,24.52
2023-05-24T09:56:07.238Z,24.61
2023-05-24T09:58:34.394Z,24.70
2023-05-24T10:01:06.683Z,24.80
2023-05-24T10:03:35.108Z,24.71
2023-05-24T10:06:04.986Z,24.78
2023-05-24T10:08:32.347Z,24.87
2023-05-24T10:10:59.497Z,24.84
2023-05-24T10:13:26.995Z,24.80
2023-05-24T10:15:53.976Z,24.74
2023-05-24T10:18:21.341Z,24.61
2023-05-24T10:20:48.876Z,24.56
2023-05-24T10:23:20.622Z,24.63
2023-05-24T10:26:09.884Z,24.71
2023-05-24T10:28:44.842Z,24.90
2023-05-24T10:31:22.159Z,24.95
2023-05-24T10:33:49.186Z,24.99
2023-05-24T10:36:16.315Z,24.89
2023-05-24T10:38:43.717Z,24.72
2023-05-24T10:41:10.985Z,24.59
2023-05-24T10:43:38.381Z,24.52
2023-05-24T10:46:07.558Z,24.43
2023-05-24T10:48:36.460Z,24.36
2023-05-24T10:51:36.545Z,24.27
2023-05-24T10:54:19.589Z,24.12
2023-05-24T10:56:48.366Z,23.92
2023-05-24T10:59:38.911Z,23.77
2023-05-24T11:02:09.862Z,23.50
2023-05-24T11:04:38.433Z,23.37
2023-05-24T11:07:06.145Z,23.33
2023-05-24T11:09:33.558Z,23.32
2023-05-24T11:12:04.211Z,23.21
2023-05-24T11:14:32.208Z,23.15
2023-05-24T11:17:02.283Z,23.07
2023-05-24T11:19:33.193Z,23.04
2023-05-24T11:22:00.697Z,23.01
2023-05-24T11:24:28.016Z,23.01
2023-05-24T11:26:57.201Z,22.98
2023-05-24T11:29:24.430Z,22.99
2023-05-24T11:31:53.154Z,23.01
2023-05-24T11:34:21.143Z,23.09
2023-05-24T11:36:48.555Z,23.13
2023-05-24T11:39:16.334Z,23.15
2023-05-24T11:41:43.715Z,23.21
2023-05-24T11:44:11.679Z,23.27
2023-05-24T11:46:39.586Z,23.30
2023-05-24T11:49:07.246Z,23.24
2023-05-24T11:51:34.685Z,23.23
2023-05-24T11:54:01.848Z,23.23
2023-05-24T11:56:33.018Z,23.23
2023-05-24T11:59:15.601Z,23.27
2023-05-24T12:01:42.980Z,23.26
2023-05-24T12:04:10.488Z,23.23
2023-05-24T12:06:44.826Z,23.18
2023-05-24T12:09:13.793Z,23.12
2023-05-24T12:11:47.326Z,23.10
2023-05-24T12:14:14.963Z,23.03
2023-05-24T12:16:46.243Z,23.04
2023-05-24T12:21:58.824Z,23.15
2023-05-24T12:24:26.451Z,23.22
2023-05-24T12:27:02.718Z,23.22
2023-05-24T12:29:39.995Z,23.24
2023-05-24T12:32:13.298Z,23.23
2023-05-24T12:34:42.550Z,23.27
2023-05-24T12:37:10.168Z,23.29
2023-05-24T12:39:38.006Z,23.31
2023-05-24T12:42:05.109Z,23.33
2023-05-24T12:44:35.899Z,23.25
2023-05-24T12:47:04.172Z,23.19
2023-05-24T12:49:31.766Z,23.19
2023-05-24T12:51:59.050Z,23.12
2023-05-24T12:54:27.491Z,23.11
2023-05-24T12:56:56.671Z,23.14
2023-05-24T12:59:24.778Z,23.16
2023-05-24T13:01:52.682Z,23.16
2023-05-24T13:04:21.220Z,23.20
2023-05-24T13:06:48.498Z,23.23
2023-05-24T13:09:18.154Z,23.24
2023-05-24T13:11:45.715Z,23.32
2023-05-24T13:14:13.018Z,23.37
2023-05-24T13:16:40.025Z,23.37
2023-05-24T13:19:07.377Z,23.41
2023-05-24T13:21:34.598Z,23.42
2023-05-24T13:24:01.696Z,23.40
2023-05-24T13:26:30.971Z,23.34
2023-05-24T13:31:28.140Z,23.21
2023-05-24T13:33:55.500Z,23.09
2023-05-24T13:36:22.569Z,23.06
2023-05-24T13:38:54.314Z,22.98
2023-05-24T13:41:29.758Z,22.96
2023-05-24T13:43:57.059Z,22.95
2023-05-24T13:46:24.201Z,22.92
2023-05-24T13:48:51.570Z,22.90
2023-05-24T13:51:20.000Z,22.81
2023-05-24T13:53:48.144Z,22.77
2023-05-24T13:56:16.034Z,22.76
2023-05-24T13:58:43.212Z,22.70
2023-05-24T14:01:10.635Z,22.70
2023-05-24T14:03:39.802Z,22.65
2023-05-24T14:06:10.618Z,22.66
2023-05-24T14:08:37.757Z,22.64
2023-05-24T14:11:04.815Z,22.63
2023-05-24T14:14:32.876Z,22.63
2023-05-24T14:16:18.976Z,22.60
2023-05-24T14:18:49.248Z,22.59
2023-05-24T14:21:17.990Z,22.54
2023-05-24T14:23:45.454Z,22.50
2023-05-24T14:26:12.557Z,22.47
2023-05-24T14:28:39.492Z,22.42
2023-05-24T14:31:06.737Z,22.37
2023-05-24T14:33:33.723Z,22.31
2023-05-24T14:36:01.068Z,22.30
2023-05-24T14:38:28.205Z,22.23
2023-05-24T14:40:56.984Z,22.20
2023-05-24T14:43:24.264Z,22.13
2023-05-24T14:45:51.451Z,22.08
2023-05-24T14:48:18.565Z,22.04
2023-05-24T14:50:45.567Z,22.00
2023-05-24T14:53:13.105Z,21.92
2023-05-24T14:55:42.238Z,21.88
2023-05-24T14:58:11.933Z,21.86
2023-05-24T15:00:39.901Z,21.83
2023-05-24T15:03:08.334Z,21.79
2023-05-24T15:05:36.463Z,21.80
2023-05-24T15:08:05.543Z,21.79
2023-05-24T15:10:33.438Z,21.77
2023-05-24T15:13:01.660Z,21.75
2023-05-24T15:15:29.144Z,21.72
2023-05-24T15:17:57.716Z,21.69
2023-05-24T15:20:41.023Z,21.66
2023-05-24T15:23:10.828Z,21.64
2023-05-24T15:25:38.621Z,21.63
2023-05-24T15:28:05.938Z,21.61
2023-05-24T15:30:33.089Z,21.59
2023-05-24T15:33:00.271Z,21.58
2023-05-24T15:35:27.267Z,21.59
2023-05-24T15:37:54.311Z,21.58
2023-05-24T15:40:24.216Z,21.55
2023-05-24T15:42:52.979Z,21.52
2023-05-24T15:45:21.036Z,21.50
2023-05-24T15:47:48.265Z,21.49
2023-05-24T15:50:16.395Z,21.50
2023-05-24T15:52:43.528Z,21.49
2023-05-24T15:55:10.965Z,21.47
2023-05-24T15:57:38.245Z,21.48
2023-05-24T16:00:06.001Z,21.45
2023-05-24T16:02:39.927Z,21.38
2023-05-24T16:05:07.692Z,21.32
2023-05-24T16:07:34.887Z,21.27
2023-05-24T16:10:02.037Z,21.23
2023-05-24T16:12:33.066Z,21.20
2023-05-24T16:15:00.313Z,21.15
2023-05-24T16:17:27.535Z,21.08
2023-05-24T16:19:54.652Z,21.05
2023-05-24T16:22:22.280Z,21.03
2023-05-24T16:24:49.334Z,20.99
2023-05-24T16:27:16.517Z,20.92
2023-05-24T16:29:45.592Z,20.87
2023-05-24T16:32:14.207Z,20.86
2023-05-24T16:34:56.020Z,20.81
2023-05-24T16:37:24.814Z,20.76
2023-05-24T16:39:52.194Z,20.76
2023-05-24T16:42:19.305Z,20.72
2023-05-24T16:44:46.590Z,20.72
2023-05-24T16:47:13.788Z,20.68
2023-05-24T16:49:41.063Z,20.66
2023-05-24T16:52:08.626Z,20.60
2023-05-24T16:54:35.731Z,20.60
2023-05-24T16:57:03.506Z,20.54
2023-05-24T16:59:30.599Z,20.48
2023-05-24T17:01:58.329Z,20.46
2023-05-24T17:04:25.580Z,20.42
2023-05-24T17:06:53.073Z,20.39
2023-05-24T17:09:20.289Z,20.38
2023-05-24T17:11:49.365Z,20.36
2023-05-24T17:14:17.964Z,20.33
2023-05-24T17:16:45.088Z,20.29
2023-05-24T17:19:14.099Z,20.26
2023-05-24T17:21:41.109Z,20.21
2023-05-24T17:24:08.353Z,20.15
2023-05-24T17:26:35.456Z,20.09
2023-05-24T17:29:02.581Z,20.05
2023-05-24T17:31:29.720Z,20.01
2023-05-24T17:33:57.493Z,19.98
2023-05-24T17:36:24.553Z,19.91
2023-05-24T17:38:51.705Z,19.84
2023-05-24T17:41:18.791Z,19.79
2023-05-24T17:43:46.188Z,19.75
2023-05-24T17:46:13.622Z,19.72
2023-05-24T17:48:41.394Z,19.68
2023-05-24T17:51:10.749Z,19.67
2023-05-24T17:53:38.197Z,19.60
2023-05-24T17:56:06.413Z,19.55
2023-05-24T17:58:36.973Z,19.50
2023-05-24T18:01:06.225Z,19.47
2023-05-24T18:03:34.192Z,19.45
2023-05-24T18:06:01.478Z,19.44
2023-05-24T18:08:28.607Z,19.40
2023-05-24T18:10:56.213Z,19.34
2023-05-24T18:13:23.357Z,19.30
2023-05-24T18:15:50.587Z,19.24
2023-05-24T18:18:17.811Z,19.19
2023-05-24T18:20:44.980Z,19.12
2023-05-24T18:23:12.880Z,19.08
2023-05-24T18:25:40.125Z,19.05
2023-05-24T18:28:07.472Z,19.04
2023-05-24T18:30:42.442Z,18.99
2023-05-24T18:33:09.732Z,18.90
2023-05-24T18:35:36.930Z,18.78
2023-05-24T18:38:04.564Z,18.70
2023-05-24T18:40:31.614Z,18.67
2023-05-24T18:42:58.707Z,18.58
2023-05-24T18:45:28.879Z,18.48
2023-05-24T18:47:55.977Z,18.35
2023-05-24T18:50:29.200Z,18.34
2023-05-24T18:52:56.427Z,18.32
2023-05-24T18:55:23.459Z,18.31
2023-05-24T18:57:50.627Z,18.23
2023-05-24T19:00:24.472Z,18.19
2023-05-24T19:05:46.418Z,18.10
2023-05-24T19:08:13.918Z,18.07
2023-05-24T19:10:41.369Z,18.04
2023-05-24T19:13:08.507Z,17.95
2023-05-24T19:15:37.375Z,17.86
2023-05-24T19:18:04.741Z,17.75
2023-05-24T19:20:31.991Z,17.67
2023-05-24T19:22:59.334Z,17.67
2023-05-24T19:25:26.570Z,17.64
2023-05-24T19:30:23.656Z,17.56
2023-05-24T19:32:50.874Z,17.51
2023-05-24T19:35:18.109Z,17.51
2023-05-24T19:37:45.085Z,17.52
2023-05-24T19:40:12.405Z,17.53
2023-05-24T19:42:39.372Z,17.53
2023-05-24T19:45:07.312Z,17.51
2023-05-24T19:47:34.459Z,17.47
2023-05-24T19:50:01.610Z,17.47
2023-05-24T19:52:30.406Z,17.47
2023-05-24T19:54:57.560Z,17.47
2023-05-24T19:57:24.598Z,17.49
2023-05-24T19:59:51.941Z,17.49
2023-05-24T20:02:19.019Z,17.48
2023-05-24T20:04:46.258Z,17.47
2023-05-24T20:07:14.825Z,17.44
2023-05-24T20:09:42.000Z,17.41
2023-05-24T20:12:09.472Z,17.38
2023-05-24T20:14:36.777Z,17.35
2023-05-24T20:17:04.215Z,17.33
2023-05-24T20:19:31.383Z,17.29
2023-05-24T20:21:59.150Z,17.25
2023-05-24T20:24:26.123Z,17.22
2023-05-24T20:26:53.149Z,17.20
2023-05-24T20:29:20.148Z,17.15
2023-05-24T20:31:47.381Z,17.15
2023-05-24T20:34:14.863Z,17.10
2023-05-24T20:36:43.717Z,17.08
2023-05-24T20:39:11.450Z,17.05
2023-05-24T20:41:38.842Z,17.02
2023-05-24T20:44:06.137Z,16.97
2023-05-24T20:46:33.695Z,16.93
2023-05-24T20:49:01.651Z,16.89
2023-05-24T20:51:28.811Z,16.88
2023-05-24T20:53:56.093Z,16.85
2023-05-24T20:56:23.253Z,16.84
2023-05-24T20:58:53.059Z,16.80
2023-05-24T21:01:21.396Z,16.78
2023-05-24T21:03:48.758Z,16.76
2023-05-24T21:06:16.036Z,16.75
2023-05-24T21:08:43.531Z,16.74
2023-05-24T21:11:10.806Z,16.73
2023-05-24T21:13:37.977Z,16.71
2023-05-24T21:16:05.252Z,16.70
2023-05-24T21:18:33.488Z,16.71
2023-05-24T21:21:01.076Z,16.74
2023-05-24T21:23:28.695Z,16.72
2023-05-24T21:25:55.839Z,16.70
2023-05-24T21:28:22.865Z,16.64
2023-05-24T21:30:50.047Z,16.60
2023-05-24T21:33:17.129Z,16.56
2023-05-24T21:35:44.444Z,16.47
2023-05-24T21:38:11.862Z,16.42
2023-05-24T21:40:38.931Z,16.35
2023-05-24T21:43:09.683Z,16.28
2023-05-24T21:45:36.874Z,16.23
2023-05-24T21:48:03.983Z,16.18
2023-05-24T21:50:31.039Z,16.14
2023-05-24T21:52:58.029Z,16.12
2023-05-24T21:55:25.020Z,16.12
2023-05-24T21:57:52.745Z,16.09
2023-05-24T22:00:20.252Z,16.11
2023-05-24T22:02:47.748Z,16.13
2023-05-24T22:05:15.034Z,16.17
2023-05-24T22:07:42.095Z,16.14
2023-05-24T22:10:09.480Z,16.07
2023-05-24T22:12:36.578Z,15.98
2023-05-24T22:15:04.310Z,15.94
2023-05-24T22:17:33.127Z,15.92
2023-05-24T22:20:04.658Z,15.85
2023-05-24T22:22:32.028Z,15.79
2023-05-24T22:25:02.598Z,15.77
2023-05-24T22:27:32.008Z,15.76
2023-05-24T22:29:59.075Z,15.78
2023-05-24T22:32:26.243Z,15.80
2023-05-24T22:34:53.388Z,15.85
2023-05-24T22:37:20.615Z,15.89
2023-05-24T22:39:47.700Z,15.96
2023-05-24T22:42:14.814Z,15.91
2023-05-24T22:44:41.926Z,15.87
2023-05-24T22:47:08.982Z,15.84
2023-05-24T22:49:36.162Z,15.74
2023-05-24T22:52:03.258Z,15.67
2023-05-24T22:54:30.317Z,15.68
2023-05-24T22:56:57.695Z,15.70
2023-05-24T22:59:24.714Z,15.67
2023-05-24T23:01:52.011Z,15.67
2023-05-24T23:04:21.668Z,15.66
2023-05-24T23:06:52.677Z,15.68
2023-05-24T23:09:29.499Z,15.69
2023-05-24T23:11:58.681Z,15.68
2023-05-24T23:14:26.161Z,15.66
2023-05-24T23:16:53.214Z,15.65
2023-05-24T23:19:22.183Z,15.64
2023-05-24T23:21:52.439Z,15.61
2023-05-24T23:24:19.523Z,15.58
2023-05-24T23:26:46.626Z,15.59
2023-05-24T23:29:14.101Z,15.59
2023-05-24T23:31:41.395Z,15.60
2023-05-24T23:34:08.660Z,15.60
2023-05-24T23:36:36.550Z,15.59
2023-05-24T23:39:04.026Z,15.58
2023-05-24T23:41:31.143Z,15.55
2023-05-24T23:43:58.112Z,15.53
2023-05-24T23:46:25.265Z,15.51
2023-05-24T23:48:52.348Z,15.38
2023-05-24T23:51:20.549Z,15.26
2023-05-24T23:53:47.675Z,15.18
2023-05-24T23:56:14.787Z,15.09
2023-05-24T23:58:42.058Z,15.01
